createdAt,value
2023-12-09T00:01:03.701Z,66.64
2023-12-09T00:03:35.881Z,66.12
2023-12-09T00:06:05.518Z,66.27
2023-12-09T00:08:35.000Z,66.28
2023-12-09T00:11:04.051Z,65.95
2023-12-09T00:13:34.808Z,64.19
2023-12-09T00:16:04.581Z,64.80
2023-12-09T00:18:39.537Z,65.29
2023-12-09T00:21:08.868Z,65.61
2023-12-09T00:23:47.220Z,66.32
2023-12-09T00:26:19.353Z,65.99
2023-12-09T00:28:48.369Z,65.85
2023-12-09T00:31:17.592Z,64.68
2023-12-09T00:33:48.034Z,64.27
2023-12-09T00:36:17.198Z,65.00
2023-12-09T00:38:46.255Z,64.92
2023-12-09T00:41:15.550Z,65.73
2023-12-09T00:43:45.301Z,65.62
2023-12-09T00:46:14.246Z,65.84
2023-12-09T00:48:43.779Z,65.63
2023-12-09T00:51:17.012Z,66.16
2023-12-09T00:53:46.026Z,65.67
2023-12-09T00:56:15.322Z,65.27
2023-12-09T00:59:02.296Z,65.40
2023-12-09T01:01:32.084Z,65.62
2023-12-09T01:04:02.665Z,65.67
2023-12-09T01:06:33.598Z,65.15
2023-12-09T01:09:02.593Z,65.46
2023-12-09T01:11:34.266Z,65.77
2023-12-09T01:14:03.457Z,64.42
2023-12-09T01:16:32.910Z,64.95
2023-12-09T01:19:02.223Z,64.82
2023-12-09T01:21:31.411Z,65.20
2023-12-09T01:24:02.555Z,65.73
2023-12-09T01:26:31.429Z,66.21
2023-12-09T01:29:03.496Z,66.02
2023-12-09T01:31:36.577Z,65.95
2023-12-09T01:34:06.736Z,66.24
2023-12-09T01:36:36.124Z,65.74
2023-12-09T01:39:06.814Z,65.57
2023-12-09T01:41:36.621Z,65.91
2023-12-09T01:44:08.067Z,65.23
2023-12-09T01:46:37.591Z,65.29
2023-12-09T01:49:07.473Z,65.15
2023-12-09T01:51:39.454Z,65.35
2023-12-09T01:54:12.186Z,66.11
2023-12-09T01:56:42.558Z,65.65
2023-12-09T01:59:12.056Z,65.50
2023-12-09T02:01:41.192Z,65.88
2023-12-09T02:04:11.146Z,65.75
2023-12-09T02:06:40.649Z,65.60
2023-12-09T02:09:10.629Z,65.89
2023-12-09T02:11:50.545Z,65.76
2023-12-09T02:14:30.866Z,65.91
2023-12-09T02:17:05.983Z,65.65
2023-12-09T02:19:35.810Z,65.45
2023-12-09T02:22:08.158Z,65.83
2023-12-09T02:24:39.246Z,66.40
2023-12-09T02:27:12.696Z,65.70
2023-12-09T02:29:51.037Z,66.27
2023-12-09T02:32:25.153Z,66.50
2023-12-09T02:34:56.277Z,66.43
2023-12-09T02:37:29.544Z,65.95
2023-12-09T02:40:02.040Z,65.98
2023-12-09T02:42:31.864Z,66.25
2023-12-09T02:45:01.944Z,66.20
2023-12-09T02:47:31.349Z,66.22
2023-12-09T02:50:00.537Z,66.79
2023-12-09T02:52:31.915Z,66.61
2023-12-09T02:55:02.313Z,66.28
2023-12-09T02:57:34.662Z,66.14
2023-12-09T03:00:06.855Z,66.62
2023-12-09T03:02:36.233Z,66.38
2023-12-09T03:05:05.890Z,66.29
2023-12-09T03:07:35.500Z,66.23
2023-12-09T03:10:07.022Z,63.98
2023-12-09T03:12:36.344Z,65.01
2023-12-09T03:15:07.733Z,65.43
2023-12-09T03:17:38.632Z,65.58
2023-12-09T03:20:10.032Z,65.63
2023-12-09T03:22:39.148Z,65.73
2023-12-09T03:25:12.476Z,66.01
2023-12-09T03:27:41.448Z,66.06
2023-12-09T03:30:12.015Z,66.28
2023-12-09T03:32:41.428Z,66.22
2023-12-09T03:35:13.502Z,66.32
2023-12-09T03:37:42.464Z,66.74
2023-12-09T03:40:14.379Z,66.30
2023-12-09T03:42:43.745Z,66.09
2023-12-09T03:45:13.378Z,66.48
2023-12-09T03:47:42.655Z,66.28
2023-12-09T03:50:12.209Z,66.38
2023-12-09T03:52:41.682Z,66.26
2023-12-09T03:55:11.151Z,66.23
2023-12-09T03:57:43.719Z,66.38
2023-12-09T04:00:15.173Z,66.57
2023-12-09T04:02:44.600Z,66.75
2023-12-09T04:05:13.540Z,66.32
2023-12-09T04:07:43.050Z,66.47
2023-12-09T04:10:12.427Z,66.34
2023-12-09T04:12:43.037Z,66.05
2023-12-09T04:15:14.205Z,65.96
2023-12-09T04:17:43.640Z,66.59
2023-12-09T04:20:13.925Z,66.29
2023-12-09T04:22:43.210Z,66.38
2023-12-09T04:25:12.813Z,66.04
2023-12-09T04:27:44.198Z,66.33
2023-12-09T04:30:14.516Z,66.00
2023-12-09T04:32:43.974Z,66.60
2023-12-09T04:35:13.551Z,66.07
2023-12-09T04:37:43.189Z,66.18
2023-12-09T04:40:16.507Z,65.94
2023-12-09T04:42:48.826Z,65.67
2023-12-09T04:45:18.209Z,66.25
2023-12-09T04:47:47.607Z,65.24
2023-12-09T04:50:16.603Z,65.48
2023-12-09T04:52:45.611Z,66.09
2023-12-09T04:55:14.970Z,65.87
2023-12-09T04:57:44.129Z,66.01
2023-12-09T05:00:17.442Z,66.26
2023-12-09T05:02:47.763Z,65.92
2023-12-09T05:05:16.944Z,65.88
2023-12-09T05:07:46.044Z,66.10
2023-12-09T05:10:15.336Z,65.84
2023-12-09T05:12:44.488Z,66.03
2023-12-09T05:15:16.672Z,66.00
2023-12-09T05:17:45.987Z,66.02
2023-12-09T05:20:15.342Z,65.97
2023-12-09T05:22:46.352Z,66.12
2023-12-09T05:25:16.072Z,66.62
2023-12-09T05:27:45.162Z,65.98
2023-12-09T05:30:16.651Z,66.17
2023-12-09T05:32:47.305Z,65.89
2023-12-09T05:35:16.353Z,66.16
2023-12-09T05:37:45.964Z,64.57
2023-12-09T05:40:15.453Z,64.38
2023-12-09T05:42:44.378Z,64.23
2023-12-09T05:45:13.649Z,65.07
2023-12-09T05:47:44.474Z,65.41
2023-12-09T05:50:14.212Z,66.14
2023-12-09T05:52:43.929Z,65.80
2023-12-09T05:55:17.195Z,65.42
2023-12-09T05:57:46.534Z,65.52
2023-12-09T06:00:16.952Z,66.42
2023-12-09T06:02:47.991Z,66.19
2023-12-09T06:05:17.117Z,66.29
2023-12-09T06:07:46.413Z,64.74
2023-12-09T06:10:16.799Z,67.70
2023-12-09T06:12:46.743Z,67.25
2023-12-09T06:15:15.972Z,67.18
2023-12-09T06:17:45.233Z,67.01
2023-12-09T06:20:16.090Z,66.37
2023-12-09T06:22:45.098Z,66.10
2023-12-09T06:25:14.433Z,66.28
2023-12-09T06:27:43.789Z,66.43
2023-12-09T06:30:15.799Z,66.29
2023-12-09T06:32:45.908Z,66.86
2023-12-09T06:35:16.461Z,66.47
2023-12-09T06:37:46.040Z,66.81
2023-12-09T06:40:15.316Z,67.20
2023-12-09T06:42:44.724Z,66.87
2023-12-09T06:45:14.152Z,66.51
2023-12-09T06:47:45.297Z,66.11
2023-12-09T06:50:14.497Z,65.69
2023-12-09T06:52:47.181Z,65.34
2023-12-09T06:55:16.684Z,65.37
2023-12-09T06:57:46.561Z,65.66
2023-12-09T07:00:17.085Z,65.72
2023-12-09T07:02:56.426Z,65.72
2023-12-09T07:05:28.968Z,65.67
2023-12-09T07:07:59.716Z,65.92
2023-12-09T07:10:28.787Z,65.87
2023-12-09T07:12:57.967Z,65.19
2023-12-09T07:15:27.558Z,65.68
2023-12-09T07:17:56.799Z,65.84
2023-12-09T07:20:25.797Z,65.64
2023-12-09T07:22:55.038Z,65.98
2023-12-09T07:25:27.018Z,65.88
2023-12-09T07:27:56.323Z,66.02
2023-12-09T07:30:25.952Z,65.16
2023-12-09T07:32:55.293Z,65.42
2023-12-09T07:35:26.401Z,65.24
2023-12-09T07:37:56.546Z,64.60
2023-12-09T07:40:27.381Z,64.96
2023-12-09T07:42:56.278Z,65.73
2023-12-09T07:45:25.769Z,64.31
2023-12-09T07:47:56.081Z,63.94
2023-12-09T07:50:25.274Z,65.25
2023-12-09T07:53:01.692Z,65.60
2023-12-09T07:55:33.190Z,65.29
2023-12-09T07:58:02.199Z,65.57
2023-12-09T08:00:32.936Z,65.37
2023-12-09T08:03:05.617Z,65.05
2023-12-09T08:05:35.967Z,64.83
2023-12-09T08:08:05.703Z,64.69
2023-12-09T08:10:36.221Z,64.76
2023-12-09T08:13:06.207Z,64.65
2023-12-09T08:15:35.346Z,65.78
2023-12-09T08:18:04.999Z,65.41
2023-12-09T08:20:35.923Z,64.87
2023-12-09T08:23:05.736Z,65.11
2023-12-09T08:25:36.963Z,66.17
2023-12-09T08:28:07.057Z,65.59
2023-12-09T08:30:35.633Z,65.44
2023-12-09T08:33:06.199Z,64.40
2023-12-09T08:35:36.834Z,64.07
2023-12-09T08:38:06.707Z,63.83
2023-12-09T08:40:37.414Z,63.96
2023-12-09T08:43:06.976Z,62.20
2023-12-09T08:45:35.830Z,61.67
2023-12-09T08:48:05.167Z,63.94
2023-12-09T08:50:34.726Z,64.29
2023-12-09T08:53:04.078Z,62.63
2023-12-09T08:55:33.239Z,62.33
2023-12-09T08:58:04.758Z,61.97
2023-12-09T09:00:33.683Z,63.11
2023-12-09T09:03:06.001Z,62.74
2023-12-09T09:05:37.033Z,62.71
2023-12-09T09:08:07.210Z,62.86
2023-12-09T09:10:36.345Z,62.29
2023-12-09T09:13:06.888Z,61.81
2023-12-09T09:15:37.073Z,62.90
2023-12-09T09:18:07.993Z,63.14
2023-12-09T09:20:37.790Z,62.93
2023-12-09T09:23:07.102Z,62.64
2023-12-09T09:25:36.224Z,62.30
2023-12-09T09:28:06.925Z,62.55
2023-12-09T09:30:36.217Z,62.24
2023-12-09T09:33:07.904Z,62.04
2023-12-09T09:35:37.078Z,62.35
2023-12-09T09:38:06.648Z,63.69
2023-12-09T09:40:35.812Z,62.48
2023-12-09T09:43:15.350Z,62.29
2023-12-09T09:45:48.380Z,62.74
2023-12-09T09:48:20.033Z,62.88
2023-12-09T09:50:54.616Z,62.75
2023-12-09T09:53:34.504Z,62.75
2023-12-09T09:56:04.824Z,62.55
2023-12-09T09:58:36.414Z,62.88
2023-12-09T10:01:07.235Z,63.01
2023-12-09T10:03:36.990Z,61.89
2023-12-09T10:06:11.141Z,63.10
2023-12-09T10:08:41.065Z,76.49
2023-12-09T10:11:10.798Z,76.62
2023-12-09T10:13:41.162Z,66.90
2023-12-09T10:16:10.532Z,65.14
2023-12-09T10:18:39.812Z,56.50
2023-12-09T10:21:10.220Z,55.20
2023-12-09T10:23:39.944Z,56.98
2023-12-09T10:26:10.501Z,58.00
2023-12-09T10:28:41.574Z,58.81
2023-12-09T10:31:12.077Z,60.63
2023-12-09T10:33:43.905Z,62.77
2023-12-09T10:36:13.166Z,62.94
2023-12-09T10:38:45.383Z,62.07
2023-12-09T10:41:16.426Z,63.78
2023-12-09T10:43:47.509Z,64.09
2023-12-09T10:46:20.100Z,64.76
2023-12-09T10:48:52.710Z,63.13
2023-12-09T10:51:24.509Z,64.09
2023-12-09T10:53:53.690Z,64.26
2023-12-09T10:56:22.870Z,66.38
2023-12-09T10:58:54.629Z,64.85
2023-12-09T11:01:25.678Z,65.31
2023-12-09T11:03:55.013Z,64.95
2023-12-09T11:06:26.476Z,65.05
2023-12-09T11:08:56.460Z,63.38
2023-12-09T11:11:27.511Z,64.09
2023-12-09T11:14:01.030Z,63.99
2023-12-09T11:16:31.385Z,64.29
2023-12-09T11:19:02.914Z,63.60
2023-12-09T11:21:33.055Z,63.26
2023-12-09T11:24:02.217Z,62.89
2023-12-09T11:26:32.964Z,62.44
2023-12-09T11:29:04.893Z,62.68
2023-12-09T11:31:37.676Z,62.96
2023-12-09T11:34:10.081Z,62.30
2023-12-09T11:36:40.596Z,62.31
2023-12-09T11:39:12.791Z,61.66
2023-12-09T11:41:42.703Z,61.24
2023-12-09T11:44:14.464Z,62.31
2023-12-09T11:46:44.813Z,62.70
2023-12-09T11:49:14.313Z,62.28
2023-12-09T11:51:43.631Z,62.34
2023-12-09T11:54:13.100Z,63.08
2023-12-09T11:56:42.697Z,62.06
2023-12-09T11:59:15.642Z,63.04
2023-12-09T12:01:45.490Z,61.76
2023-12-09T12:04:15.030Z,61.22
2023-12-09T12:06:44.455Z,60.73
2023-12-09T12:09:13.849Z,61.25
2023-12-09T12:11:43.288Z,61.03
2023-12-09T12:14:13.908Z,62.87
2023-12-09T12:16:44.709Z,64.22
2023-12-09T12:19:13.985Z,63.77
2023-12-09T12:21:43.393Z,62.00
2023-12-09T12:24:12.978Z,62.72
2023-12-09T12:26:41.884Z,62.16
2023-12-09T12:29:19.007Z,61.54
2023-12-09T12:31:50.763Z,60.85
2023-12-09T12:34:22.067Z,62.31
2023-12-09T12:36:53.843Z,60.83
2023-12-09T12:39:27.599Z,62.64
2023-12-09T12:41:58.800Z,63.46
2023-12-09T12:44:29.643Z,63.59
2023-12-09T12:47:00.727Z,61.69
2023-12-09T12:49:38.679Z,62.26
2023-12-09T12:52:08.469Z,62.84
2023-12-09T12:54:39.792Z,62.12
2023-12-09T12:57:09.260Z,62.84
2023-12-09T12:59:40.293Z,63.72
2023-12-09T13:02:09.528Z,64.76
2023-12-09T13:04:40.789Z,65.16
2023-12-09T13:07:10.135Z,65.33
2023-12-09T13:09:39.544Z,66.16
2023-12-09T13:12:10.137Z,64.09
2023-12-09T13:14:40.747Z,63.42
2023-12-09T13:17:10.722Z,63.70
2023-12-09T13:19:40.330Z,63.11
2023-12-09T13:22:09.478Z,63.46
2023-12-09T13:24:39.192Z,63.60
2023-12-09T13:27:09.550Z,63.93
2023-12-09T13:29:40.402Z,63.85
2023-12-09T13:32:09.472Z,64.05
2023-12-09T13:34:39.804Z,63.47
2023-12-09T13:37:09.493Z,66.35
2023-12-09T13:39:38.964Z,67.61
2023-12-09T13:42:08.550Z,68.79
2023-12-09T13:44:40.527Z,67.92
2023-12-09T13:47:11.877Z,68.60
2023-12-09T13:49:42.761Z,69.52
2023-12-09T13:52:12.251Z,67.87
2023-12-09T13:54:41.812Z,68.12
2023-12-09T13:57:11.971Z,67.19
2023-12-09T13:59:41.417Z,67.98
2023-12-09T14:02:13.432Z,68.20
2023-12-09T14:04:43.437Z,68.09
2023-12-09T14:07:12.974Z,67.45
2023-12-09T14:09:45.027Z,67.20
2023-12-09T14:12:14.182Z,66.50
2023-12-09T14:14:43.829Z,65.63
2023-12-09T14:17:15.199Z,66.96
2023-12-09T14:19:44.742Z,67.39
2023-12-09T14:22:14.113Z,68.72
2023-12-09T14:24:43.504Z,66.79
2023-12-09T14:27:13.925Z,68.11
2023-12-09T14:29:43.065Z,68.69
2023-12-09T14:32:15.154Z,68.32
2023-12-09T14:34:44.775Z,68.81
2023-12-09T14:37:14.490Z,67.67
2023-12-09T14:39:45.224Z,67.91
2023-12-09T14:42:14.717Z,68.42
2023-12-09T14:44:47.445Z,69.79
2023-12-09T14:47:18.912Z,69.53
2023-12-09T14:49:49.039Z,70.32
2023-12-09T14:52:19.300Z,69.34
2023-12-09T14:54:48.843Z,68.65
2023-12-09T14:57:17.907Z,68.40
2023-12-09T14:59:47.137Z,68.51
2023-12-09T15:02:17.925Z,69.06
2023-12-09T15:04:48.614Z,68.51
2023-12-09T15:07:17.875Z,68.75
2023-12-09T15:09:47.679Z,68.46
2023-12-09T15:12:17.892Z,69.08
2023-12-09T15:14:47.256Z,70.40
2023-12-09T15:17:23.465Z,70.85
2023-12-09T15:19:56.810Z,70.07
2023-12-09T15:22:28.060Z,69.23
2023-12-09T15:24:59.405Z,69.08
2023-12-09T15:27:29.408Z,70.69
2023-12-09T15:29:59.193Z,69.57
2023-12-09T15:32:30.218Z,70.71
2023-12-09T15:34:59.540Z,70.17
2023-12-09T15:37:28.843Z,69.82
2023-12-09T15:39:58.214Z,69.46
2023-12-09T15:42:28.255Z,68.74
2023-12-09T15:44:58.052Z,68.39
2023-12-09T15:47:27.463Z,68.18
2023-12-09T15:49:58.959Z,68.80
2023-12-09T15:52:28.695Z,68.56
2023-12-09T15:54:58.940Z,67.22
2023-12-09T15:57:28.243Z,68.00
2023-12-09T15:59:57.660Z,70.92
2023-12-09T16:02:29.511Z,69.79
2023-12-09T16:05:00.162Z,69.79
2023-12-09T16:07:30.113Z,69.09
2023-12-09T16:09:59.662Z,69.24
2023-12-09T16:12:28.802Z,68.70
2023-12-09T16:14:58.625Z,68.77
2023-12-09T16:17:29.140Z,69.26
2023-12-09T16:20:03.431Z,68.53
2023-12-09T16:22:32.840Z,68.56
2023-12-09T16:25:02.346Z,68.24
2023-12-09T16:27:32.914Z,69.52
2023-12-09T16:30:02.883Z,70.24
2023-12-09T16:32:33.541Z,70.12
2023-12-09T16:35:05.121Z,69.96
2023-12-09T16:37:35.387Z,69.60
2023-12-09T16:40:05.684Z,68.46
2023-12-09T16:42:37.337Z,69.99
2023-12-09T16:45:12.157Z,68.85
2023-12-09T16:47:42.595Z,68.47
2023-12-09T16:50:13.619Z,67.52
2023-12-09T16:52:43.507Z,67.35
2023-12-09T16:55:12.986Z,69.45
2023-12-09T16:57:42.420Z,70.16
2023-12-09T17:00:12.125Z,69.10
2023-12-09T17:02:41.380Z,69.98
2023-12-09T17:05:12.475Z,70.25
2023-12-09T17:07:43.196Z,70.55
2023-12-09T17:10:12.536Z,70.50
2023-12-09T17:12:42.238Z,70.80
2023-12-09T17:15:11.567Z,70.21
2023-12-09T17:17:40.597Z,70.02
2023-12-09T17:20:11.133Z,70.26
2023-12-09T17:22:40.542Z,70.75
2023-12-09T17:25:11.602Z,70.20
2023-12-09T17:27:41.698Z,69.08
2023-12-09T17:30:16.054Z,68.99
2023-12-09T17:32:45.270Z,70.18
2023-12-09T17:35:15.938Z,69.76
2023-12-09T17:37:45.213Z,70.09
2023-12-09T17:40:18.600Z,71.08
2023-12-09T17:42:48.145Z,70.27
2023-12-09T17:45:18.363Z,69.13
2023-12-09T17:47:48.302Z,69.15
2023-12-09T17:50:18.287Z,71.16
2023-12-09T17:52:47.480Z,70.82
2023-12-09T17:55:20.846Z,72.57
2023-12-09T17:57:50.403Z,72.42
2023-12-09T18:00:21.582Z,71.12
2023-12-09T18:02:50.940Z,71.55
2023-12-09T18:05:20.197Z,70.09
2023-12-09T18:07:49.528Z,71.37
2023-12-09T18:10:20.720Z,70.78
2023-12-09T18:12:53.612Z,71.62
2023-12-09T18:15:22.896Z,71.83
2023-12-09T18:17:54.541Z,70.55
2023-12-09T18:20:24.128Z,70.62
2023-12-09T18:22:57.170Z,68.81
2023-12-09T18:25:30.884Z,69.16
2023-12-09T18:28:00.005Z,72.61
2023-12-09T18:30:29.486Z,71.95
2023-12-09T18:32:59.326Z,72.86
2023-12-09T18:35:28.605Z,71.36
2023-12-09T18:37:58.383Z,71.79
2023-12-09T18:40:28.884Z,71.72
2023-12-09T18:43:00.491Z,71.41
2023-12-09T18:45:31.631Z,71.24
2023-12-09T18:48:01.575Z,72.15
2023-12-09T18:50:31.028Z,72.02
2023-12-09T18:53:00.259Z,71.53
2023-12-09T18:55:30.968Z,70.76
2023-12-09T18:58:00.623Z,70.44
2023-12-09T19:00:29.698Z,71.90
2023-12-09T19:03:01.661Z,72.02
2023-12-09T19:05:31.166Z,73.84
2023-12-09T19:08:00.233Z,71.75
2023-12-09T19:10:30.766Z,71.38
2023-12-09T19:13:02.949Z,71.48
2023-12-09T19:15:32.131Z,70.84
2023-12-09T19:18:02.070Z,70.59
2023-12-09T19:20:31.931Z,71.79
2023-12-09T19:23:01.216Z,72.41
2023-12-09T19:25:31.752Z,73.84
2023-12-09T19:28:01.271Z,72.97
2023-12-09T19:30:30.595Z,73.31
2023-12-09T19:33:00.477Z,73.21
2023-12-09T19:35:30.019Z,72.50
2023-12-09T19:38:01.170Z,72.65
2023-12-09T19:40:32.534Z,71.12
2023-12-09T19:43:01.782Z,72.74
2023-12-09T19:45:31.726Z,72.67
2023-12-09T19:48:02.953Z,73.01
2023-12-09T19:50:32.564Z,73.20
2023-12-09T19:53:05.117Z,71.14
2023-12-09T19:55:37.119Z,72.65
2023-12-09T19:58:07.760Z,73.03
2023-12-09T20:00:37.331Z,74.00
2023-12-09T20:03:07.069Z,74.12
2023-12-09T20:05:36.082Z,73.20
2023-12-09T20:08:05.025Z,72.56
2023-12-09T20:10:37.848Z,72.62
2023-12-09T20:13:06.694Z,73.24
2023-12-09T20:15:36.059Z,73.86
2023-12-09T20:18:05.284Z,73.75
2023-12-09T20:20:34.438Z,73.02
2023-12-09T20:23:04.210Z,73.38
2023-12-09T20:25:34.519Z,74.13
2023-12-09T20:28:07.988Z,74.37
2023-12-09T20:30:39.127Z,74.21
2023-12-09T20:33:08.599Z,72.83
2023-12-09T20:35:37.680Z,73.47
2023-12-09T20:38:07.117Z,73.93
2023-12-09T20:40:36.788Z,72.98
2023-12-09T20:43:07.103Z,72.04
2023-12-09T20:45:38.196Z,71.18
2023-12-09T20:48:09.619Z,72.67
2023-12-09T20:50:41.084Z,73.07
2023-12-09T20:53:11.186Z,73.41
2023-12-09T20:55:41.141Z,71.92
2023-12-09T20:58:12.950Z,73.16
2023-12-09T21:00:42.479Z,72.75
2023-12-09T21:03:12.124Z,73.15
2023-12-09T21:05:42.934Z,73.16
2023-12-09T21:08:12.460Z,74.50
2023-12-09T21:10:41.977Z,76.12
2023-12-09T21:13:12.596Z,74.33
2023-12-09T21:15:44.519Z,74.83
2023-12-09T21:18:13.816Z,75.38
2023-12-09T21:20:43.839Z,75.38
2023-12-09T21:23:12.740Z,75.67
2023-12-09T21:25:41.780Z,75.19
2023-12-09T21:28:12.655Z,75.33
2023-12-09T21:30:41.906Z,77.50
2023-12-09T21:33:11.466Z,78.77
2023-12-09T21:35:40.838Z,76.93
2023-12-09T21:38:10.029Z,78.45
2023-12-09T21:40:39.275Z,77.78
2023-12-09T21:43:08.417Z,77.48
2023-12-09T21:45:41.261Z,76.70
2023-12-09T21:48:10.961Z,75.93
2023-12-09T21:50:40.492Z,76.83
2023-12-09T21:53:12.381Z,76.76
2023-12-09T21:55:42.167Z,75.69
2023-12-09T21:58:11.848Z,76.34
2023-12-09T22:00:43.303Z,76.93
2023-12-09T22:03:12.755Z,75.50
2023-12-09T22:05:44.008Z,78.65
2023-12-09T22:08:13.658Z,78.56
2023-12-09T22:10:43.148Z,77.23
2023-12-09T22:13:12.388Z,76.31
2023-12-09T22:15:44.551Z,76.92
2023-12-09T22:18:13.651Z,77.31
2023-12-09T22:20:43.638Z,77.46
2023-12-09T22:23:12.936Z,79.01
2023-12-09T22:25:42.670Z,77.19
2023-12-09T22:28:12.131Z,77.52
2023-12-09T22:30:41.422Z,76.96
2023-12-09T22:33:16.333Z,77.14
2023-12-09T22:35:46.026Z,77.22
2023-12-09T22:38:18.438Z,76.64
2023-12-09T22:40:48.002Z,77.11
2023-12-09T22:43:17.593Z,76.66
2023-12-09T22:45:46.690Z,78.00
2023-12-09T22:48:17.821Z,76.40
2023-12-09T22:50:47.584Z,75.04
2023-12-09T22:53:16.798Z,74.32
2023-12-09T22:55:46.126Z,74.93
2023-12-09T22:58:15.601Z,73.47
2023-12-09T23:00:45.476Z,73.79
2023-12-09T23:03:14.465Z,76.62
2023-12-09T23:05:45.214Z,76.10
2023-12-09T23:08:14.463Z,77.18
2023-12-09T23:10:44.123Z,79.01
2023-12-09T23:13:15.472Z,78.43
2023-12-09T23:15:45.011Z,76.63
2023-12-09T23:18:14.217Z,77.71
2023-12-09T23:20:47.232Z,78.16
2023-12-09T23:23:16.841Z,77.76
2023-12-09T23:25:46.688Z,76.24
2023-12-09T23:28:16.001Z,77.37
2023-12-09T23:30:45.946Z,79.35
2023-12-09T23:33:15.380Z,77.12
2023-12-09T23:35:46.203Z,77.33
2023-12-09T23:38:15.770Z,79.29
2023-12-09T23:40:44.731Z,78.05
2023-12-09T23:43:13.943Z,79.84
2023-12-09T23:45:44.737Z,77.97
2023-12-09T23:48:20.403Z,77.23
2023-12-09T23:50:51.346Z,76.34
2023-12-09T23:53:20.565Z,76.83
2023-12-09T23:55:50.200Z,76.99
2023-12-09T23:58:19.389Z,76.21
